Time;durP1;ratioP1;P1;durP2;ratioP2;P2;SDS_P1;SDS_P2;PMS_P1;PMS_P2;Temp;Humidity;BMP_temperature;BMP_pressure;BME280_temperature;BME280_humidity;BME280_pressure;Samples;Min_cycle;Max_cycle;Signal;HPM_P1;HPM_P2
2021/05/22 00:05:38;;;;;;;;;;;;;;;;;;;;;
2021/05/22 00:31:46;;;;;;;;;;;;;;;;;;;;;
2021/05/22 00:38:59;;;;;;;8.00;4.85;;;;;;;12.72;73.86;97911.44;259151;1103;23013;-71
2021/05/22 00:46:05;;;;;;;6.75;3.80;;;;;;;12.70;73.74;97894.84;258937;1110;22810;-72
2021/05/22 01:06:28;;;;;;;7.27;4.47;;;;;;;12.31;73.17;97870.68;259302;1110;22948;-71
2021/05/22 01:20:36;;;;;;;10.10;5.70;;;;;;;12.12;73.84;97887.16;259129;1103;23654;-71
2021/05/22 01:27:15;;;;;;;7.70;4.40;;;;;;;12.09;74.07;97879.74;259048;1111;22858;-71
2021/05/22 01:34:10;;;;;;;7.00;4.65;;;;;;;11.94;73.94;97883.72;259143;1103;26242;-72
2021/05/22 01:40:53;;;;;;;;;;;;;;;;;;;;;
2021/05/22 01:54:39;;;;;;;4.65;3.25;;;;;;;11.80;74.60;97877.72;259155;1103;22843;-72
2021/05/22 02:01:36;;;;;;;7.50;4.50;;;;;;;11.83;74.96;97865.56;259131;1111;22914;-71
2021/05/22 02:08:33;;;;;;;5.35;3.60;;;;;;;11.84;74.76;97854.52;259388;1103;22817;-72
2021/05/22 02:15:35;;;;;;;5.05;3.65;;;;;;;11.84;74.69;97867.16;259161;1103;25932;-72
2021/05/22 02:22:14;;;;;;;6.40;3.85;;;;;;;11.88;75.17;97858.14;259205;1109;22803;-72
2021/05/22 02:28:53;;;;;;;6.40;4.20;;;;;;;11.93;74.89;97847.24;259250;1110;22807;-72
2021/05/22 02:36:14;;;;;;;6.85;4.15;;;;;;;11.82;74.67;97829.88;259258;1103;25829;-72
2021/05/22 02:48:04;;;;;;;5.50;3.55;;;;;;;11.61;75.03;97822.52;259443;1106;22984;-74
2021/05/22 02:53:38;;;;;;;4.75;3.60;;;;;;;11.57;74.92;97805.48;259189;1111;22780;-72
2021/05/22 02:58:59;;;;;;;;;;;;;;;;;;;;;
2021/05/22 03:04:56;;;;;;;;;;;;;;;;;;;;;
2021/05/22 03:11:46;;;;;;;;;;;;;;;;;;;;;
2021/05/22 03:18:05;;;;;;;5.55;3.50;;;;;;;11.53;75.13;97809.10;259032;1111;22775;-72
2021/05/22 03:30:26;;;;;;;;;;;;;;;;;;;;;
2021/05/22 03:37:35;;;;;;;5.20;3.17;;;;;;;11.71;75.38;97802.62;259217;1111;22860;-72
2021/05/22 03:43:48;;;;;;;5.00;3.30;;;;;;;11.92;75.60;97804.59;259075;1110;22839;-71
2021/05/22 03:50:18;;;;;;;5.63;3.47;;;;;;;12.37;75.60;97806.03;259121;1103;26962;-72
2021/05/22 03:56:49;;;;;;;;;;;;;;;;;;;;;
2021/05/22 04:10:41;;;;;;;7.93;4.93;;;;;;;13.36;73.99;97794.02;259262;1111;22793;-72
2021/05/22 04:16:33;;;;;;;5.10;3.35;;;;;;;13.43;73.52;97804.22;259014;1111;22939;-71
2021/05/22 04:22:28;;;;;;;;;;;;;;;;;;;;;
2021/05/22 04:29:04;;;;;;;4.70;3.80;;;;;;;13.00;72.76;97809.61;259276;1103;22942;-71
2021/05/22 04:35:08;;;;;;;6.15;3.95;;;;;;;12.87;72.58;97805.29;259310;1103;22899;-72
2021/05/22 04:46:29;;;;;;;6.25;4.05;;;;;;;12.77;73.41;97801.09;259207;1103;22807;-72
2021/05/22 04:52:59;;;;;;;6.90;4.70;;;;;;;12.77;73.36;97825.27;259260;1103;27303;-73
2021/05/22 05:05:53;;;;;;;;;;;;;;;;;;;;;
2021/05/22 05:12:38;;;;;;;;;;;;;;;;;;;;;
2021/05/22 05:18:46;;;;;;;7.27;5.03;;;;;;;13.35;74.41;97833.56;259185;1110;22945;-72
2021/05/22 05:31:50;;;;;;;9.60;6.13;;;;;;;13.44;73.55;97876.52;259232;1103;22917;-72
2021/05/22 05:38:36;;;;;;;9.15;5.40;;;;;;;13.26;73.75;97869.68;259180;1103;25910;-72
2021/05/22 05:45:13;;;;;;;8.50;6.10;;;;;;;13.01;73.96;97885.66;259060;1110;22854;-72
2021/05/22 05:52:17;;;;;;;9.47;5.30;;;;;;;12.84;74.90;97890.04;259179;1110;22955;-72
2021/05/22 05:59:03;;;;;;;10.20;6.00;;;;;;;12.78;75.13;97877.88;259211;1103;22802;-75
2021/05/22 06:04:57;;;;;;;;;;;;;;;;;;;;;
2021/05/22 06:11:35;;;;;;;8.43;6.07;;;;;;;13.45;75.33;97867.34;259207;1103;22949;-72
2021/05/22 06:31:29;;;;;;;7.65;5.30;;;;;;;13.14;74.74;97902.68;259184;1103;25986;-71
2021/05/22 06:38:14;;;;;;;7.70;5.45;;;;;;;13.14;74.94;97894.61;259180;1110;22803;-71
2021/05/22 06:51:03;;;;;;;;;;;;;;;;;;;;;
2021/05/22 06:57:22;;;;;;;9.47;5.73;;;;;;;13.40;74.46;97899.04;259602;1103;23533;-71
2021/05/22 07:24:01;;;;;;;5.37;3.77;;;;;;;13.80;72.78;97926.25;259671;1103;22819;-71
2021/05/22 07:37:43;;;;;;;5.05;3.15;;;;;;;13.69;72.50;97922.39;260028;1108;22827;-72
2021/05/22 07:44:31;;;;;;;4.55;2.50;;;;;;;13.61;72.51;97934.02;259321;1111;22853;-71
2021/05/22 07:50:26;;;;;;;4.17;3.10;;;;;;;13.59;72.64;97910.13;259946;1108;22809;-71
2021/05/22 07:56:56;;;;;;;4.90;3.20;;;;;;;13.81;73.18;97921.67;260006;1103;22793;-71
2021/05/22 08:02:36;;;;;;;4.75;2.75;;;;;;;13.97;72.95;97911.06;259512;1111;22779;-70
2021/05/22 08:08:21;;;;;;;5.97;3.67;;;;;;;14.03;72.27;97912.42;259776;1103;23087;-72
2021/05/22 08:13:54;;;;;;;5.20;3.55;;;;;;;13.88;72.21;97919.23;259760;1110;25678;-70
2021/05/22 08:19:27;;;;;;;6.15;4.15;;;;;;;13.74;72.69;97916.02;259789;1103;22937;-72
2021/05/22 08:25:04;;;;;;;5.47;4.63;;;;;;;13.69;73.32;97923.17;260495;1103;22819;-71
2021/05/22 08:30:16;;;;;;;6.85;5.00;;;;;;;13.59;74.02;97930.88;259996;1103;22803;-70
2021/05/22 08:36:01;;;;;;;;;;;;;;;;;;;;;
2021/05/22 08:42:37;;;;;;;8.40;5.10;;;;;;;12.97;74.99;97947.37;259587;1110;22745;-72
2021/05/22 08:49:24;;;;;;;6.37;5.20;;;;;;;12.71;75.97;97963.59;259936;1107;22827;-73
2021/05/22 09:45:26;;;;;;;;;;;;;;;;;;;;;
2021/05/22 09:59:13;;;;;;;;;;;;;;;;;;;;;
2021/05/22 10:06:10;;;;;;;2.45;1.80;;;;;;;11.79;82.31;97978.09;259259;1103;22786;-72
2021/05/22 10:18:31;;;;;;;;;;;;;;;;;;;;;
2021/05/22 10:24:49;;;;;;;2.70;2.30;;;;;;;11.82;83.18;97998.92;259362;1103;26289;-72
2021/05/22 10:38:04;;;;;;;;;;;;;;;;;;;;;
2021/05/22 10:44:19;;;;;;;2.60;2.15;;;;;;;11.76;82.56;98011.71;259796;1103;26267;-73
2021/05/22 10:57:22;;;;;;;3.05;1.70;;;;;;;12.09;82.19;98032.77;259523;1103;22840;-73
2021/05/22 11:04:15;;;;;;;2.43;1.70;;;;;;;12.22;82.28;98025.64;261736;1110;22909;-73
2021/05/22 11:18:32;;;;;;;2.57;1.90;;;;;;;12.77;80.82;98026.83;259455;1103;22955;-74
2021/05/22 11:32:25;;;;;;;2.30;1.70;;;;;;;13.40;81.17;98030.85;259134;1109;22921;-73
2021/05/22 11:39:16;;;;;;;;;;;;;;;;;;;;;
2021/05/22 12:14:11;;;;;;;3.23;2.27;;;;;;;14.59;74.76;98008.22;258758;1103;22888;-74
2021/05/22 12:21:24;;;;;;;3.00;2.05;;;;;;;15.02;74.73;98010.44;259128;1103;23405;-74
2021/05/22 12:27:58;;;;;;;2.45;1.70;;;;;;;15.51;73.00;98006.94;259312;1111;22894;-74
2021/05/22 12:34:20;;;;;;;;;;;;;;;;;;;;;
2021/05/22 12:41:29;;;;;;;2.25;1.65;;;;;;;15.50;70.92;98001.88;259601;1103;22852;-74
2021/05/22 13:22:17;;;;;;;2.57;2.27;;;;;;;16.54;63.92;98001.34;259127;1111;22841;-74
2021/05/22 13:36:21;;;;;;;;;;;;;;;;;;;;;
2021/05/22 13:43:00;;;;;;;;;;;;;;;;;;;;;
2021/05/22 13:49:04;;;;;;;7.20;5.05;;;;;;;15.52;66.07;98005.05;259161;1103;26312;-72
2021/05/22 13:55:13;;;;;;;;;;;;;;;;;;;;;
2021/05/22 14:22:37;;;;;;;2.90;1.90;;;;;;;16.72;64.47;97989.06;259057;1111;22789;-73
2021/05/22 14:28:46;;;;;;;;;;;;;;;;;;;;;
2021/05/22 14:35:40;;;;;;;;;;;;;;;;;;;;;
2021/05/22 14:42:59;;;;;;;;;;;;;;;;;;;;;
2021/05/22 15:03:08;;;;;;;;;;;;;;;;;;;;;
2021/05/22 15:16:57;;;;;;;3.10;2.00;;;;;;;16.53;59.13;97970.81;258914;1111;24372;-73
2021/05/22 15:30:44;;;;;;;2.55;1.80;;;;;;;16.37;59.03;97976.20;258969;1111;22757;-72
2021/05/22 15:44:36;;;;;;;3.70;2.40;;;;;;;16.41;59.76;97976.28;259357;1108;22929;-71
2021/05/22 16:24:33;;;;;;;;;;;;;;;;;;;;;
2021/05/22 16:30:44;;;;;;;2.45;1.15;;;;;;;16.96;52.84;98010.89;258932;1105;22926;-72
2021/05/22 16:36:50;;;;;;;;;;;;;;;;;;;;;
2021/05/22 16:56:25;;;;;;;;;;;;;;;;;;;;;
2021/05/22 17:03:11;;;;;;;2.23;1.27;;;;;;;16.07;53.05;98024.40;258918;1103;22857;-72
2021/05/22 17:10:13;;;;;;;1.65;1.00;;;;;;;15.77;52.31;98024.69;258907;1103;22952;-71
2021/05/22 17:16:41;;;;;;;3.60;2.20;;;;;;;15.34;54.05;98031.48;259133;1111;22786;-72
2021/05/22 17:23:18;;;;;;;2.70;1.75;;;;;;;14.96;56.30;98056.86;259128;1111;22810;-71
2021/05/22 17:28:38;;;;;;;3.63;2.30;;;;;;;14.70;58.08;98060.61;259192;1103;22805;-72
2021/05/22 17:34:20;;;;;;;5.30;2.50;;;;;;;14.55;59.22;98049.31;259266;1110;22915;-71
2021/05/22 17:40:15;;;;;;;;;;;;;;;;;;;;;
2021/05/22 17:46:13;;;;;;;5.23;2.57;;;;;;;14.35;60.49;98044.74;259660;1108;25085;-72
2021/05/22 17:52:02;;;;;;;5.83;3.70;;;;;;;14.27;61.58;98037.52;259244;1110;22803;-72
2021/05/22 17:58:44;;;;;;;8.30;4.40;;;;;;;14.20;62.88;98025.39;259298;1111;22844;-71
2021/05/22 18:05:31;;;;;;;;;;;;;;;;;;;;;
2021/05/22 18:11:30;;;;;;;;;;;;;;;;;;;;;
2021/05/22 18:17:39;;;;;;;5.40;3.15;;;;;;;13.46;64.52;98053.78;259227;1108;21620;-71
2021/05/22 18:23:31;;;;;;;4.30;2.20;;;;;;;13.26;63.01;98080.27;259298;1103;26124;-73
2021/05/22 18:29:22;;;;;;;2.70;2.00;;;;;;;13.12;62.10;98093.92;259297;1103;23521;-72
2021/05/22 18:35:37;;;;;;;3.27;1.70;;;;;;;13.03;62.20;98119.26;259543;1103;22799;-72
2021/05/22 18:41:55;;;;;;;;;;;;;;;;;;;;;
2021/05/22 18:48:25;;;;;;;2.70;1.80;;;;;;;12.94;62.93;98156.89;259243;1103;22867;-72
2021/05/22 19:17:03;;;;;;;1.60;1.10;;;;;;;12.68;62.27;98270.58;259067;1108;22971;-72
2021/05/22 19:23:51;;;;;;;;;;;;;;;;;;;;;
2021/05/22 19:30:46;;;;;;;2.20;1.68;;;;;;;12.07;61.48;98241.67;259147;1110;22951;-72
2021/05/22 19:50:47;;;;;;;;;;;;;;;;;;;;;
2021/05/22 19:56:46;;;;;;;;;;;;;;;;;;;;;
2021/05/22 20:09:43;;;;;;;3.50;1.83;;;;;;;11.02;63.76;98242.98;259523;1103;22792;-72
2021/05/22 20:16:30;;;;;;;2.80;1.60;;;;;;;10.97;63.91;98235.86;259273;1106;22776;-73
2021/05/22 20:22:58;;;;;;;3.05;2.10;;;;;;;10.92;64.60;98231.39;259193;1111;22870;-72
2021/05/22 20:29:45;;;;;;;13.43;8.20;;;;;;;10.84;65.42;98237.47;259273;1111;22861;-72
2021/05/22 20:43:11;;;;;;;14.13;7.40;;;;;;;10.88;67.10;98240.34;259282;1103;26264;-72
2021/05/22 21:03:44;;;;;;;;;;;;;;;;;;;;;
2021/05/22 21:09:42;;;;;;;5.15;3.00;;;;;;;11.37;68.97;98292.27;259044;1103;24462;-73
2021/05/22 21:16:17;;;;;;;;;;;;;;;;;;;;;
2021/05/22 21:22:16;;;;;;;5.23;3.17;;;;;;;11.45;69.69;98280.03;259472;1103;22785;-72
2021/05/22 21:34:41;;;;;;;;;;;;;;;;;;;;;
2021/05/22 21:41:27;;;;;;;;;;;;;;;;;;;;;
2021/05/22 21:47:57;;;;;;;8.83;4.60;;;;;;;11.31;71.50;98298.86;259110;1110;22734;-72
2021/05/22 21:54:29;;;;;;;7.73;4.50;;;;;;;11.25;71.46;98276.74;259148;1103;22873;-72
2021/05/22 22:01:39;;;;;;;6.93;4.20;;;;;;;11.07;72.26;98266.99;259601;1103;26238;-71
2021/05/22 22:08:13;;;;;;;;;;;;;;;;;;;;;
2021/05/22 22:14:29;;;;;;;;;;;;;;;;;;;;;
2021/05/22 22:21:22;;;;;;;8.73;4.83;;;;;;;10.59;73.99;98284.36;259783;1103;22919;-72
2021/05/22 22:42:18;;;;;;;12.37;7.20;;;;;;;10.02;74.67;98282.00;258985;1104;22849;-71
2021/05/22 22:56:08;;;;;;;;;;;;;;;;;;;;;
2021/05/22 23:02:46;;;;;;;;;;;;;;;;;;;;;
2021/05/22 23:09:29;;;;;;;;;;;;;;;;;;;;;
2021/05/22 23:15:52;;;;;;;12.67;7.90;;;;;;;9.34;77.47;98295.70;259161;1110;22809;-72
2021/05/22 23:21:51;;;;;;;12.17;6.80;;;;;;;9.30;77.20;98294.69;259171;1110;23235;-72
2021/05/22 23:28:06;;;;;;;12.80;6.83;;;;;;;9.28;77.68;98290.75;259041;1103;22887;-72
2021/05/22 23:47:25;;;;;;;9.57;5.67;;;;;;;9.11;77.24;98310.77;259019;1103;22976;-71
2021/05/22 23:53:52;;;;;;;6.30;4.13;;;;;;;9.05;78.15;98306.56;259302;1103;23645;-72
